Time;durP1;ratioP1;P1;durP2;ratioP2;P2;SDS_P1;SDS_P2;PMS_P1;PMS_P2;Temp;Humidity;BMP_temperature;BMP_pressure;BME280_temperature;BME280_humidity;BME280_pressure;Samples;Min_cycle;Max_cycle;Signal;HPM_P1;HPM_P2
2022/04/07 00:00:22;;;;;;;7.15;3.83;;;;;;;13.51;37.37;94048.38;4960629;28;20233;-65
2022/04/07 00:16:29;;;;;;;5.10;3.83;;;;;;;13.54;37.31;94019.72;5032651;27;20597;-61
2022/04/07 00:18:57;;;;;;;5.53;3.60;;;;;;;13.42;37.82;94018.66;5024863;28;20705;-61
2022/04/07 00:21:25;;;;;;;6.10;3.88;;;;;;;13.45;37.67;94015.63;5038458;28;20225;-62
2022/04/07 00:23:52;;;;;;;5.43;3.72;;;;;;;13.49;37.37;94016.84;5036808;28;20224;-62
2022/04/07 00:26:17;;;;;;;7.10;3.72;;;;;;;13.41;37.92;94006.44;5033012;28;20198;-61
2022/04/07 00:28:43;;;;;;;4.78;4.07;;;;;;;13.35;38.11;94012.50;5033017;28;20241;-61
2022/04/07 00:31:11;;;;;;;5.90;3.90;;;;;;;13.38;37.45;93998.91;5029283;28;20617;-61
2022/04/07 00:33:36;;;;;;;7.35;3.65;;;;;;;13.51;37.31;93996.34;5046231;28;20228;-62
2022/04/07 00:36:04;;;;;;;6.38;3.58;;;;;;;13.48;37.60;93985.38;5030479;28;20226;-61
2022/04/07 00:38:30;;;;;;;8.55;4.43;;;;;;;13.24;38.01;93982.16;5040191;28;20209;-62
2022/04/07 00:40:55;;;;;;;3.35;3.05;;;;;;;13.20;38.10;93997.56;5035968;28;20212;-61
2022/04/07 00:43:31;;;;;;;3.35;3.08;;;;;;;13.24;37.57;93995.34;5034690;28;20597;-61
2022/04/07 00:45:59;;;;;;;3.30;2.85;;;;;;;13.30;37.56;94005.16;5036224;28;20644;-62
2022/04/07 00:48:26;;;;;;;4.15;3.20;;;;;;;13.21;37.72;93999.19;5013368;28;20357;-62
2022/04/07 00:50:53;;;;;;;3.38;3.03;;;;;;;13.16;37.91;93998.94;5030472;28;20246;-61
2022/04/07 00:53:19;;;;;;;4.35;2.97;;;;;;;13.07;38.25;93992.19;5029966;28;20614;-62
2022/04/07 00:55:45;;;;;;;3.42;3.10;;;;;;;13.14;37.91;93990.41;5038133;28;20214;-62
2022/04/07 00:58:11;;;;;;;5.25;3.30;;;;;;;13.08;37.89;93975.34;5031568;28;20280;-62
2022/04/07 01:00:37;;;;;;;4.07;3.03;;;;;;;13.07;38.55;93976.34;5030177;28;20725;-62
2022/04/07 01:03:02;;;;;;;3.80;3.25;;;;;;;12.99;38.49;93965.91;5032601;28;20222;-62
2022/04/07 01:05:27;;;;;;;3.47;2.85;;;;;;;12.83;38.90;93977.59;5032919;28;20229;-62
2022/04/07 01:07:54;;;;;;;4.43;3.08;;;;;;;12.84;38.77;93975.78;5032124;28;20677;-62
2022/04/07 01:10:20;;;;;;;6.15;3.20;;;;;;;12.90;38.90;93962.63;5029847;28;20225;-62
2022/04/07 01:12:46;;;;;;;3.88;3.40;;;;;;;12.88;38.78;93954.06;5048091;28;20297;-62
2022/04/07 01:15:11;;;;;;;3.03;2.83;;;;;;;12.94;38.62;93952.50;5052147;28;20619;-62
2022/04/07 01:17:38;;;;;;;3.13;2.78;;;;;;;12.94;38.43;93931.41;5034627;28;20268;-62
2022/04/07 01:20:06;;;;;;;3.72;3.05;;;;;;;12.76;38.78;93931.88;5037398;28;20202;-62
2022/04/07 01:22:35;;;;;;;3.47;3.13;;;;;;;12.86;38.99;93934.19;5036036;28;20217;-62
2022/04/07 01:25:00;;;;;;;4.18;3.20;;;;;;;12.81;39.27;93932.13;5007042;28;20218;-63
2022/04/07 01:27:27;;;;;;;3.80;3.50;;;;;;;12.84;39.14;93942.28;5017734;28;20233;-63
2022/04/07 01:29:52;;;;;;;4.78;3.55;;;;;;;12.82;38.71;93939.03;5031729;28;20225;-62
2022/04/07 01:32:26;;;;;;;4.88;3.40;;;;;;;12.84;38.97;93928.28;5032636;28;20215;-63
2022/04/07 01:34:52;;;;;;;4.03;3.03;;;;;;;12.67;39.85;93914.53;5040599;28;20209;-63
2022/04/07 01:37:19;;;;;;;4.07;3.50;;;;;;;12.77;39.17;93907.13;5038494;28;20226;-63
2022/04/07 01:39:47;;;;;;;3.88;3.33;;;;;;;12.82;38.98;93896.00;5033557;28;20324;-67
2022/04/07 01:42:14;;;;;;;5.18;3.30;;;;;;;12.61;39.78;93884.47;5036915;28;20233;-67
2022/04/07 01:44:46;;;;;;;4.50;3.28;;;;;;;12.57;40.08;93885.88;5036672;28;20300;-67
2022/04/07 01:47:14;;;;;;;4.97;3.33;;;;;;;12.60;40.31;93888.13;5038097;28;20209;-67
2022/04/07 01:49:44;;;;;;;4.70;3.03;;;;;;;12.73;39.25;93882.16;5040104;28;20232;-67
2022/04/07 01:52:11;;;;;;;5.78;2.78;;;;;;;12.72;39.39;93876.06;5034809;28;20253;-65
2022/04/07 01:54:38;;;;;;;4.18;3.38;;;;;;;12.62;39.70;93869.50;5037856;28;20239;-72
2022/04/07 01:57:04;;;;;;;3.35;3.05;;;;;;;12.58;39.79;93858.50;5036894;28;20226;-62
2022/04/07 01:59:30;;;;;;;3.92;3.45;;;;;;;12.60;39.69;93861.78;5037783;28;20275;-65
2022/04/07 02:01:56;;;;;;;3.28;2.80;;;;;;;12.60;39.62;93856.50;5038311;28;20274;-65
2022/04/07 02:04:23;;;;;;;4.90;3.42;;;;;;;12.63;39.56;93857.94;5024274;28;20653;-68
2022/04/07 02:06:48;;;;;;;4.43;3.50;;;;;;;12.62;39.52;93849.22;5013213;28;20226;-65
2022/04/07 02:09:14;;;;;;;3.80;3.13;;;;;;;12.64;39.82;93854.28;5033302;28;20232;-63
2022/04/07 02:11:41;;;;;;;4.60;3.15;;;;;;;12.54;39.62;93849.38;5040877;28;20213;-68
2022/04/07 02:14:06;;;;;;;4.07;3.28;;;;;;;12.62;39.59;93836.03;5033612;28;20202;-62
2022/04/07 02:16:32;;;;;;;4.50;3.28;;;;;;;12.46;39.95;93842.41;5038581;28;20233;-65
2022/04/07 02:18:57;;;;;;;3.50;3.20;;;;;;;12.47;40.01;93846.66;5037699;28;20247;-67
2022/04/07 02:21:23;;;;;;;3.38;3.08;;;;;;;12.50;39.95;93833.09;5025190;28;20230;-67
2022/04/07 02:23:48;;;;;;;3.83;2.92;;;;;;;12.40;40.06;93826.53;5025112;28;20214;-71
2022/04/07 02:26:16;;;;;;;5.43;2.95;;;;;;;12.32;40.29;93838.88;5031607;28;20677;-63
2022/04/07 02:28:42;;;;;;;4.28;3.03;;;;;;;12.28;40.55;93821.78;5019633;28;20218;-72
2022/04/07 02:31:08;;;;;;;5.55;3.20;;;;;;;12.28;40.97;93821.78;5018691;28;20244;-65
2022/04/07 02:33:37;;;;;;;5.32;2.97;;;;;;;12.18;40.67;93818.66;5015233;28;20244;-62
2022/04/07 02:36:07;;;;;;;3.92;3.38;;;;;;;12.24;40.76;93817.09;5030908;28;20305;-67
2022/04/07 02:38:35;;;;;;;4.55;3.70;;;;;;;12.34;40.54;93826.28;5039064;28;20287;-71
2022/04/07 02:41:01;;;;;;;3.78;3.22;;;;;;;12.44;40.17;93822.50;5021470;28;20230;-65
2022/04/07 02:43:26;;;;;;;3.50;2.67;;;;;;;12.34;40.62;93805.19;5037951;28;20264;-62
2022/04/07 02:45:52;;;;;;;3.10;2.80;;;;;;;12.33;40.67;93798.31;5037182;28;20229;-61
2022/04/07 02:48:17;;;;;;;3.00;2.70;;;;;;;12.40;40.00;93800.16;5037613;28;20284;-67
2022/04/07 02:50:45;;;;;;;4.93;2.95;;;;;;;12.42;40.14;93806.88;5033076;28;20224;-66
2022/04/07 02:53:11;;;;;;;4.30;3.10;;;;;;;12.51;39.87;93799.63;5037357;28;20228;-67
2022/04/07 02:55:36;;;;;;;3.38;2.83;;;;;;;12.62;39.43;93791.19;5038812;28;20221;-67
2022/04/07 02:58:02;;;;;;;4.63;2.80;;;;;;;12.49;39.84;93783.22;5039263;28;20298;-65
2022/04/07 03:00:28;;;;;;;3.10;2.78;;;;;;;12.56;39.57;93776.97;5036235;28;20693;-64
2022/04/07 03:02:53;;;;;;;3.95;3.17;;;;;;;12.57;39.55;93748.78;5043200;28;20613;-62
2022/04/07 03:05:19;;;;;;;3.88;3.38;;;;;;;12.50;39.76;93737.38;5032921;28;20217;-62
2022/04/07 03:07:44;;;;;;;4.47;3.20;;;;;;;12.42;39.74;93743.59;5040056;28;20238;-62
2022/04/07 03:10:11;;;;;;;4.25;3.05;;;;;;;12.36;40.18;93745.19;5034406;28;20232;-62
2022/04/07 03:12:37;;;;;;;3.20;2.65;;;;;;;12.32;40.39;93748.41;5036809;28;20248;-62
2022/04/07 03:15:04;;;;;;;5.13;2.95;;;;;;;12.32;40.97;93749.25;5032952;28;20238;-61
2022/04/07 03:17:29;;;;;;;4.00;3.28;;;;;;;12.15;41.25;93740.00;5040695;28;20206;-61
2022/04/07 03:19:55;;;;;;;4.15;3.00;;;;;;;12.22;41.43;93745.31;5038525;28;20212;-67
2022/04/07 03:22:20;;;;;;;4.15;2.88;;;;;;;12.28;40.71;93739.28;5034470;28;20257;-66
2022/04/07 03:24:46;;;;;;;4.10;3.00;;;;;;;12.28;40.62;93737.44;5035069;28;20221;-67
2022/04/07 03:27:12;;;;;;;3.30;3.00;;;;;;;12.11;41.00;93736.13;5030665;28;20226;-66
2022/04/07 03:29:38;;;;;;;5.00;3.30;;;;;;;12.07;41.33;93735.69;5032178;28;20218;-66
2022/04/07 03:32:04;;;;;;;5.65;3.20;;;;;;;12.16;40.91;93735.53;5037387;28;20292;-61
2022/04/07 03:34:30;;;;;;;7.78;3.88;;;;;;;12.11;41.25;93733.50;5034005;28;20279;-61
2022/04/07 03:36:55;;;;;;;5.13;3.20;;;;;;;12.06;41.38;93743.78;5021080;28;20234;-67
2022/04/07 03:39:21;;;;;;;3.47;2.85;;;;;;;11.94;41.85;93727.69;5025958;28;20229;-67
2022/04/07 03:41:47;;;;;;;5.25;3.47;;;;;;;11.96;42.11;93703.78;5016681;28;20244;-66
2022/04/07 03:44:12;;;;;;;4.47;3.55;;;;;;;12.00;42.17;93699.75;5021958;28;20194;-66
2022/04/07 03:46:38;;;;;;;5.13;3.35;;;;;;;11.95;42.17;93692.44;5036028;28;20213;-67
2022/04/07 03:49:03;;;;;;;4.57;3.78;;;;;;;12.06;42.20;93689.28;5020625;28;20726;-66
2022/04/07 03:51:29;;;;;;;5.70;3.53;;;;;;;12.07;42.11;93684.81;5024992;28;20221;-67
2022/04/07 03:53:54;;;;;;;4.97;3.60;;;;;;;12.12;42.06;93690.31;5033361;28;20313;-71
2022/04/07 03:56:21;;;;;;;6.57;3.80;;;;;;;12.09;41.95;93678.34;5035013;28;20213;-73
2022/04/07 03:58:46;;;;;;;7.07;3.80;;;;;;;11.89;42.60;93670.34;5035804;28;20209;-71
2022/04/07 04:01:13;;;;;;;5.15;3.67;;;;;;;11.97;42.16;93676.44;5036253;28;20248;-71
2022/04/07 04:03:38;;;;;;;3.90;3.50;;;;;;;11.82;42.52;93671.25;5031551;28;20221;-71
2022/04/07 04:06:04;;;;;;;4.68;3.60;;;;;;;11.94;42.02;93664.47;5034586;28;20214;-71
2022/04/07 04:08:29;;;;;;;5.10;3.90;;;;;;;11.90;42.64;93665.88;5036332;28;20576;-73
2022/04/07 04:10:55;;;;;;;4.25;3.85;;;;;;;11.91;42.36;93665.66;5036987;28;20611;-62
2022/04/07 04:13:20;;;;;;;5.78;4.22;;;;;;;12.01;42.52;93672.41;5034064;28;20287;-63
2022/04/07 04:15:46;;;;;;;5.45;3.92;;;;;;;11.99;41.99;93690.22;5032616;28;20225;-62
2022/04/07 04:18:12;;;;;;;4.20;3.80;;;;;;;11.91;42.04;93704.38;5025265;28;20225;-63
2022/04/07 04:20:38;;;;;;;5.97;3.88;;;;;;;11.81;42.78;93702.03;5015992;28;20238;-66
2022/04/07 04:23:04;;;;;;;4.18;3.78;;;;;;;11.85;42.55;93695.38;5014996;28;20301;-65
2022/04/07 04:25:29;;;;;;;7.30;3.70;;;;;;;11.85;42.54;93692.75;5016692;28;20717;-65
2022/04/07 04:27:55;;;;;;;4.93;4.32;;;;;;;11.89;42.51;93690.56;5015751;28;20218;-62
2022/04/07 04:30:20;;;;;;;5.00;3.70;;;;;;;11.97;42.54;93698.31;5020707;28;20210;-62
2022/04/07 04:32:46;;;;;;;4.18;3.78;;;;;;;11.95;42.32;93702.16;5012499;28;20324;-62
2022/04/07 04:35:11;;;;;;;4.50;3.75;;;;;;;11.90;42.70;93698.28;5019231;28;20213;-62
2022/04/07 04:37:38;;;;;;;4.80;4.18;;;;;;;11.97;42.29;93711.50;5031659;28;20199;-63
2022/04/07 04:40:04;;;;;;;8.05;3.72;;;;;;;11.94;42.62;93696.06;5028076;28;20221;-62
2022/04/07 04:42:29;;;;;;;6.15;3.80;;;;;;;11.95;42.27;93683.72;5036195;28;20230;-62
2022/04/07 04:44:55;;;;;;;8.23;4.38;;;;;;;11.94;42.69;93682.91;5038444;28;20241;-65
2022/04/07 04:47:21;;;;;;;5.47;3.67;;;;;;;12.02;42.41;93687.22;5034893;28;20768;-66
2022/04/07 04:49:47;;;;;;;7.15;4.47;;;;;;;11.84;42.69;93688.50;5024572;28;20301;-66
2022/04/07 04:52:13;;;;;;;4.72;3.75;;;;;;;11.82;42.93;93679.97;5023257;28;20470;-65
2022/04/07 04:54:38;;;;;;;5.18;4.05;;;;;;;11.85;43.69;93678.78;5019831;28;20238;-65
2022/04/07 04:57:04;;;;;;;8.88;4.57;;;;;;;11.99;42.53;93683.13;5026007;28;20240;-65
2022/04/07 04:59:30;;;;;;;4.90;3.95;;;;;;;12.07;42.10;93693.53;5042671;28;20220;-65
2022/04/07 05:01:55;;;;;;;6.50;3.92;;;;;;;12.14;42.40;93696.22;5045102;28;20687;-62
2022/04/07 05:04:21;;;;;;;7.85;4.47;;;;;;;12.16;42.29;93683.63;5041494;28;20244;-64
2022/04/07 05:06:47;;;;;;;6.15;3.97;;;;;;;12.25;41.88;93694.84;5035429;28;20230;-64
2022/04/07 05:09:12;;;;;;;8.88;4.00;;;;;;;12.25;41.84;93689.59;5045094;28;20327;-64
2022/04/07 05:11:38;;;;;;;4.93;3.78;;;;;;;12.39;41.83;93677.28;5037698;28;20684;-64
2022/04/07 05:14:03;;;;;;;5.55;4.10;;;;;;;12.43;41.51;93687.25;5039227;28;20213;-65
2022/04/07 05:16:29;;;;;;;6.53;3.53;;;;;;;12.35;41.91;93700.59;5037589;28;20226;-65
2022/04/07 05:18:54;;;;;;;10.52;4.50;;;;;;;12.46;41.62;93694.78;5035876;28;20321;-64
2022/04/07 05:21:20;;;;;;;9.35;4.10;;;;;;;12.48;41.12;93681.38;5037929;28;20221;-64
2022/04/07 05:23:45;;;;;;;6.68;3.90;;;;;;;12.46;41.41;93676.31;5041711;28;20229;-64
2022/04/07 05:26:13;;;;;;;6.78;4.50;;;;;;;12.53;41.25;93679.78;5034787;28;20205;-64
2022/04/07 05:28:42;;;;;;;9.02;4.43;;;;;;;12.51;41.13;93683.63;5038744;28;20209;-65
2022/04/07 05:31:09;;;;;;;5.85;4.53;;;;;;;12.63;40.93;93674.16;5041721;28;20221;-65
2022/04/07 05:33:35;;;;;;;7.07;4.45;;;;;;;12.54;40.95;93677.97;5037771;28;20225;-64
2022/04/07 05:36:00;;;;;;;8.23;4.30;;;;;;;12.54;41.00;93670.88;5041507;28;20284;-64
2022/04/07 05:38:26;;;;;;;5.63;4.10;;;;;;;12.64;40.69;93683.66;5036575;28;20198;-64
2022/04/07 05:40:51;;;;;;;5.80;4.25;;;;;;;12.55;40.74;93690.13;5035635;28;20198;-64
2022/04/07 05:43:17;;;;;;;8.27;4.45;;;;;;;12.55;40.69;93685.66;5036303;28;20230;-64
2022/04/07 05:45:45;;;;;;;9.80;4.93;;;;;;;12.45;40.92;93673.88;5038272;28;20245;-63
2022/04/07 05:48:13;;;;;;;8.98;4.80;;;;;;;12.39;41.24;93669.38;5035655;28;20310;-63
2022/04/07 05:50:39;;;;;;;5.25;3.97;;;;;;;12.39;41.21;93669.38;5033547;28;20240;-63
2022/04/07 05:53:06;;;;;;;6.50;4.72;;;;;;;12.38;41.41;93667.75;5037517;28;20198;-63
2022/04/07 05:55:32;;;;;;;8.18;4.10;;;;;;;12.39;41.55;93664.09;5038539;28;20597;-63
2022/04/07 05:58:06;;;;;;;6.20;4.30;;;;;;;12.43;40.58;93654.78;5034920;28;20354;-64
2022/04/07 06:00:31;;;;;;;8.93;5.45;;;;;;;12.47;41.00;93640.22;5038677;28;20226;-64
2022/04/07 06:02:57;;;;;;;6.25;4.50;;;;;;;12.45;40.92;93644.88;5036250;28;20238;-64
2022/04/07 06:05:23;;;;;;;7.38;5.25;;;;;;;12.42;40.57;93632.09;5031878;28;20234;-64
2022/04/07 06:07:48;;;;;;;7.82;4.07;;;;;;;12.30;40.76;93616.84;5036587;28;20857;-64
2022/04/07 06:10:13;;;;;;;5.82;4.30;;;;;;;12.45;40.38;93615.88;5040331;28;20221;-65
2022/04/07 06:12:42;;;;;;;9.20;4.70;;;;;;;12.48;40.51;93624.22;5044251;28;20709;-64
2022/04/07 06:15:09;;;;;;;5.88;4.07;;;;;;;12.50;40.45;93624.81;5035216;28;20221;-64
2022/04/07 06:17:39;;;;;;;4.75;4.05;;;;;;;12.47;41.22;93630.47;5031045;28;20368;-65
2022/04/07 06:20:08;;;;;;;8.43;4.45;;;;;;;12.38;40.91;93623.75;5021891;28;20210;-66
2022/04/07 06:22:34;;;;;;;6.05;4.80;;;;;;;12.45;40.29;93632.50;5029495;28;20271;-64
2022/04/07 06:24:59;;;;;;;6.10;4.28;;;;;;;12.48;40.51;93612.81;5027072;28;20210;-64
2022/04/07 06:27:39;;;;;;;7.22;4.55;;;;;;;12.60;40.54;93623.63;5033903;28;20220;-64
2022/04/07 06:30:07;;;;;;;13.13;5.35;;;;;;;12.44;41.01;93630.88;5029403;28;20218;-64
2022/04/07 06:32:33;;;;;;;10.68;5.05;;;;;;;12.34;41.84;93631.22;5024117;28;20226;-63
2022/04/07 06:34:59;;;;;;;13.00;5.15;;;;;;;12.45;41.58;93613.22;5035148;28;20247;-62
2022/04/07 06:37:25;;;;;;;5.85;4.97;;;;;;;12.54;41.04;93617.34;5027485;28;20761;-63
2022/04/07 06:39:50;;;;;;;6.30;5.70;;;;;;;12.64;40.56;93622.22;5018075;28;20782;-64
2022/04/07 06:42:16;;;;;;;7.65;4.90;;;;;;;12.61;40.90;93612.06;5012810;28;20234;-64
2022/04/07 06:44:42;;;;;;;6.30;4.82;;;;;;;12.63;40.99;93610.84;5013304;28;20233;-63
2022/04/07 06:47:07;;;;;;;7.65;5.03;;;;;;;12.67;41.23;93609.47;5036486;28;20721;-63
2022/04/07 06:49:33;;;;;;;8.13;5.10;;;;;;;12.58;41.02;93606.16;5028134;28;20201;-63
2022/04/07 06:51:58;;;;;;;7.90;4.88;;;;;;;12.72;40.79;93619.41;5013915;28;20219;-65
2022/04/07 06:54:24;;;;;;;10.13;4.97;;;;;;;12.58;41.01;93610.63;5010745;28;20258;-64
2022/04/07 06:56:49;;;;;;;5.95;4.20;;;;;;;12.59;41.00;93622.81;5023405;28;20221;-64
2022/04/07 06:59:14;;;;;;;8.18;4.47;;;;;;;12.64;40.33;93612.47;5032187;28;20212;-63
2022/04/07 07:01:41;;;;;;;5.82;4.63;;;;;;;12.67;40.29;93620.00;5037099;28;20198;-63
2022/04/07 07:04:07;;;;;;;5.82;4.35;;;;;;;12.51;40.77;93617.69;5044202;28;20313;-63
2022/04/07 07:06:33;;;;;;;6.55;4.97;;;;;;;12.48;40.78;93613.66;5036146;28;20229;-66
2022/04/07 07:08:58;;;;;;;8.55;5.35;;;;;;;12.53;40.97;93598.03;5033417;28;20784;-63
2022/04/07 07:11:24;;;;;;;8.90;4.88;;;;;;;12.67;40.57;93604.19;5036569;28;20202;-63
2022/04/07 07:13:49;;;;;;;10.05;4.95;;;;;;;12.72;40.28;93583.31;5032075;28;20207;-63
2022/04/07 07:16:15;;;;;;;6.63;4.82;;;;;;;12.67;40.51;93609.47;5015381;28;20789;-62
2022/04/07 07:18:42;;;;;;;8.60;4.65;;;;;;;12.79;40.79;93604.41;5025670;28;20222;-63
2022/04/07 07:21:08;;;;;;;8.07;5.43;;;;;;;12.94;40.88;93580.50;5028901;28;20732;-62
2022/04/07 07:23:33;;;;;;;9.35;5.10;;;;;;;13.06;40.15;93610.53;5026404;28;20226;-65
2022/04/07 07:25:59;;;;;;;8.70;5.60;;;;;;;13.05;40.34;93590.44;5013708;28;20207;-63
2022/04/07 07:28:24;;;;;;;8.23;5.53;;;;;;;13.11;40.71;93599.38;5037483;28;20548;-64
2022/04/07 07:30:50;;;;;;;7.95;5.70;;;;;;;13.15;39.79;93593.50;5033509;28;20719;-62
2022/04/07 07:33:15;;;;;;;12.57;5.22;;;;;;;12.84;40.77;93595.91;5033069;28;20248;-64
2022/04/07 07:35:43;;;;;;;10.00;6.10;;;;;;;13.03;40.24;93585.38;5025445;28;20318;-65
2022/04/07 07:38:09;;;;;;;8.90;6.43;;;;;;;13.07;40.15;93575.25;5022821;28;20228;-65
2022/04/07 07:40:34;;;;;;;8.00;4.90;;;;;;;13.18;39.55;93576.47;5012995;28;20710;-66
2022/04/07 07:43:01;;;;;;;7.32;4.90;;;;;;;13.23;39.24;93576.63;5013696;28;20234;-65
2022/04/07 07:45:29;;;;;;;13.00;6.10;;;;;;;13.26;40.88;93563.09;5014549;28;20233;-66
2022/04/07 07:47:55;;;;;;;11.15;6.03;;;;;;;13.25;42.52;93567.50;5012243;28;21004;-64
2022/04/07 07:50:21;;;;;;;12.77;6.43;;;;;;;13.37;42.58;93546.63;5016013;28;20206;-65
2022/04/07 07:52:47;;;;;;;9.07;6.05;;;;;;;13.38;43.08;93550.06;5013527;28;20198;-66
2022/04/07 07:55:12;;;;;;;11.10;6.30;;;;;;;13.43;42.23;93547.63;5031854;28;20813;-64
2022/04/07 07:57:38;;;;;;;9.35;5.40;;;;;;;13.22;41.19;93567.91;5035767;28;20260;-65
2022/04/07 08:00:07;;;;;;;9.85;5.50;;;;;;;13.36;40.33;93531.78;5031418;28;20220;-65
2022/04/07 08:02:36;;;;;;;8.88;4.70;;;;;;;13.42;40.41;93533.63;5013376;28;20266;-64
2022/04/07 08:05:02;;;;;;;11.63;4.75;;;;;;;13.58;39.56;93542.94;5038422;28;20202;-65
2022/04/07 08:07:28;;;;;;;10.68;4.60;;;;;;;13.64;39.37;93541.31;5036690;28;20275;-64
2022/04/07 08:09:57;;;;;;;10.00;5.20;;;;;;;13.55;39.05;93547.81;5034492;28;20591;-65
2022/04/07 08:12:26;;;;;;;8.13;4.63;;;;;;;13.62;38.85;93512.44;5027172;28;20511;-64
2022/04/07 08:14:52;;;;;;;7.32;4.40;;;;;;;13.63;38.47;93532.56;5040569;28;20229;-65
2022/04/07 08:17:19;;;;;;;6.13;4.30;;;;;;;13.87;37.88;93531.09;5031854;28;20259;-65
2022/04/07 08:19:44;;;;;;;9.07;5.60;;;;;;;13.93;37.85;93524.16;5037309;28;20203;-64
2022/04/07 08:22:10;;;;;;;6.88;4.65;;;;;;;14.12;37.70;93499.47;5028916;28;20236;-63
2022/04/07 08:24:35;;;;;;;8.45;5.45;;;;;;;14.31;37.22;93496.94;5029506;28;20269;-64
2022/04/07 08:27:02;;;;;;;8.23;4.97;;;;;;;14.25;37.49;93508.38;5035993;28;20314;-63
2022/04/07 08:29:28;;;;;;;8.07;4.65;;;;;;;14.24;37.07;93485.59;5046774;28;20201;-63
2022/04/07 08:31:53;;;;;;;7.03;4.65;;;;;;;14.51;36.49;93480.94;5041119;28;20228;-64
2022/04/07 08:34:19;;;;;;;8.15;4.60;;;;;;;14.62;36.41;93484.78;5039881;28;20237;-64
2022/04/07 08:36:46;;;;;;;9.85;5.07;;;;;;;14.71;35.94;93486.16;5035212;28;21311;-64
2022/04/07 08:39:11;;;;;;;8.27;4.80;;;;;;;14.64;36.14;93486.19;5030155;28;20608;-65
2022/04/07 08:41:39;;;;;;;5.97;4.97;;;;;;;14.56;36.16;93479.31;5024377;28;20217;-64
2022/04/07 08:44:04;;;;;;;9.35;5.68;;;;;;;14.46;37.15;93480.78;5034983;28;20213;-64
2022/04/07 08:46:32;;;;;;;7.22;4.80;;;;;;;14.45;37.00;93477.31;5021556;28;20583;-64
2022/04/07 08:49:01;;;;;;;8.77;4.55;;;;;;;14.41;36.12;93470.84;5042941;28;20229;-63
2022/04/07 08:51:28;;;;;;;10.52;4.85;;;;;;;14.25;36.72;93479.28;5039418;28;21255;-65
2022/04/07 08:53:53;;;;;;;8.32;4.97;;;;;;;14.15;37.22;93465.72;5039087;28;20310;-71
2022/04/07 08:56:19;;;;;;;6.82;4.82;;;;;;;14.45;36.95;93460.66;5037551;28;20245;-63
2022/04/07 08:58:47;;;;;;;10.25;4.88;;;;;;;14.40;36.83;93466.56;5042156;28;20206;-66
2022/04/07 09:01:13;;;;;;;9.40;5.03;;;;;;;14.40;36.68;93469.22;5018400;28;20321;-73
2022/04/07 09:03:39;;;;;;;10.73;5.47;;;;;;;14.48;36.36;93466.31;5022634;28;20226;-65
2022/04/07 09:06:05;;;;;;;8.52;5.07;;;;;;;14.52;36.48;93458.78;5026102;28;20308;-63
2022/04/07 09:08:31;;;;;;;7.55;4.55;;;;;;;14.38;37.20;93463.34;5039744;28;21835;-70
2022/04/07 09:10:58;;;;;;;7.65;5.40;;;;;;;14.32;37.39;93475.56;5045676;28;20671;-68
2022/04/07 09:13:26;;;;;;;10.38;5.38;;;;;;;14.37;37.28;93477.59;5036002;28;20834;-65
2022/04/07 09:15:51;;;;;;;12.07;6.28;;;;;;;14.29;37.64;93486.56;5037945;28;20236;-64
2022/04/07 09:18:24;;;;;;;11.13;5.32;;;;;;;14.19;38.57;93483.56;5040118;28;20225;-70
2022/04/07 09:20:50;;;;;;;6.65;5.25;;;;;;;14.19;40.31;93485.41;5043890;28;20309;-63
2022/04/07 09:23:17;;;;;;;7.28;4.90;;;;;;;13.86;40.32;93489.00;5031799;28;20218;-65
2022/04/07 09:25:50;;;;;;;7.40;4.90;;;;;;;13.72;41.06;93485.63;5030739;28;20665;-62
2022/04/07 09:28:26;;;;;;;7.22;5.82;;;;;;;13.75;41.24;93494.94;5008995;28;20214;-62
2022/04/07 09:30:51;;;;;;;8.48;4.85;;;;;;;13.68;41.88;93498.44;5027353;28;20234;-63
2022/04/07 09:33:25;;;;;;;9.23;5.22;;;;;;;13.67;41.46;93509.19;5031273;28;20252;-69
2022/04/07 09:35:59;;;;;;;5.53;4.45;;;;;;;13.61;42.39;93500.28;5033568;28;20697;-69
2022/04/07 09:38:25;;;;;;;8.77;5.18;;;;;;;13.63;42.44;93500.88;5033120;28;20202;-70
2022/04/07 09:40:51;;;;;;;8.43;4.80;;;;;;;13.87;40.88;93501.19;5038394;28;20988;-70
2022/04/07 09:43:17;;;;;;;7.07;4.45;;;;;;;13.96;39.51;93501.78;5040645;28;20217;-67
2022/04/07 09:45:48;;;;;;;8.50;4.82;;;;;;;13.94;39.80;93504.63;5033161;28;20233;-66
2022/04/07 09:48:18;;;;;;;7.35;4.60;;;;;;;13.99;39.41;93504.00;5040369;28;20222;-67
2022/04/07 09:51:02;;;;;;;5.95;4.60;;;;;;;13.94;38.77;93504.63;5034067;28;20225;-67
2022/04/07 09:53:34;;;;;;;9.05;4.50;;;;;;;13.78;42.02;93513.03;5034761;28;20206;-61
2022/04/07 09:56:01;;;;;;;8.32;5.55;;;;;;;13.75;41.53;93516.88;5038278;28;20224;-66
2022/04/07 09:58:28;;;;;;;12.43;8.15;;;;;;;13.53;44.28;93523.47;5038754;28;21018;-64
2022/04/07 10:00:54;;;;;;;11.50;4.60;;;;;;;13.36;40.73;93533.63;5037041;28;20264;-64
2022/04/07 10:03:20;;;;;;;10.43;4.88;;;;;;;13.20;43.63;93548.84;5034484;28;20540;-70
2022/04/07 10:05:47;;;;;;;15.40;4.90;;;;;;;12.99;45.26;93557.78;5020804;28;20226;-68
2022/04/07 10:08:16;;;;;;;19.33;5.25;;;;;;;12.53;50.00;93562.97;5018062;28;20213;-64
2022/04/07 10:10:42;;;;;;;14.10;5.05;;;;;;;12.33;53.35;93558.44;5021358;28;20237;-65
2022/04/07 10:13:09;;;;;;;12.57;5.68;;;;;;;12.03;53.90;93565.00;5033670;28;20224;-66
2022/04/07 10:15:38;;;;;;;11.95;4.93;;;;;;;11.62;56.06;93563.16;5040180;28;20233;-67
2022/04/07 10:18:11;;;;;;;15.35;5.07;;;;;;;11.32;56.91;93558.09;5036306;28;20230;-62
2022/04/07 10:20:41;;;;;;;12.82;5.30;;;;;;;10.94;59.13;93549.72;5033592;28;20222;-61
2022/04/07 10:23:50;;;;;;;11.15;5.38;;;;;;;10.93;59.58;93562.06;5035369;28;20214;-67
2022/04/07 10:26:17;;;;;;;13.13;5.68;;;;;;;10.91;59.80;93555.38;4976449;28;20227;-66
2022/04/07 10:28:48;;;;;;;11.45;5.72;;;;;;;11.06;61.16;93544.75;4972822;28;20212;-67
2022/04/07 10:31:15;;;;;;;12.50;6.18;;;;;;;11.20;61.60;93543.84;4994622;28;20706;-66
2022/04/07 10:33:48;;;;;;;13.60;6.65;;;;;;;11.29;61.58;93547.16;4997759;28;20321;-66
2022/04/07 10:36:19;;;;;;;19.63;7.85;;;;;;;11.44;62.51;93540.78;4999051;28;20291;-66
2022/04/07 10:38:47;;;;;;;18.00;7.75;;;;;;;11.55;63.42;93531.53;5000139;28;20226;-68
2022/04/07 10:41:37;;;;;;;17.88;8.80;;;;;;;11.59;64.87;93531.94;5004131;28;20210;-70
2022/04/07 10:44:17;;;;;;;14.07;8.80;;;;;;;11.90;63.54;93529.72;5001992;28;20647;-66
2022/04/07 10:46:43;;;;;;;15.93;12.23;;;;;;;12.06;63.65;93530.38;5003963;28;20349;-66
2022/04/07 10:49:10;;;;;;;16.05;11.10;;;;;;;12.10;63.81;93524.50;5006960;28;20265;-66
2022/04/07 10:51:55;;;;;;;14.32;12.52;;;;;;;12.16;63.57;93515.00;5023122;28;20222;-66
2022/04/07 10:54:21;;;;;;;18.38;13.02;;;;;;;12.11;65.17;93512.16;5003646;28;20226;-62
2022/04/07 10:56:53;;;;;;;17.95;13.38;;;;;;;12.32;64.05;93498.84;5016209;28;20223;-62
2022/04/07 10:59:24;;;;;;;18.42;12.55;;;;;;;12.54;63.91;93496.84;4999197;28;20277;-70
2022/04/07 11:01:58;;;;;;;19.65;13.95;;;;;;;12.58;64.45;93497.25;5028808;28;20218;-69
2022/04/07 11:04:23;;;;;;;16.83;13.48;;;;;;;12.69;65.69;93491.38;5035371;28;20222;-70
2022/04/07 11:07:20;;;;;;;15.05;11.63;;;;;;;12.78;64.67;93494.66;5044677;28;20240;-66
2022/04/07 11:09:57;;;;;;;15.82;11.82;;;;;;;12.88;63.19;93489.75;5038200;28;20229;-66
2022/04/07 11:12:24;;;;;;;12.85;11.50;;;;;;;12.96;64.04;93489.59;5031750;28;20760;-67
2022/04/07 11:14:55;;;;;;;14.35;12.52;;;;;;;13.16;63.01;93492.19;5033813;28;20252;-71
2022/04/07 11:17:47;;;;;;;17.35;13.75;;;;;;;13.24;61.76;93494.63;5032608;28;20243;-70
2022/04/07 11:20:16;;;;;;;17.05;13.35;;;;;;;13.33;61.34;93497.06;5015462;28;20278;-70
2022/04/07 11:23:12;;;;;;;14.43;12.50;;;;;;;13.40;61.51;93488.13;5015062;28;20205;-68
2022/04/07 11:25:41;;;;;;;14.70;10.15;;;;;;;13.49;60.10;93496.63;5039501;28;20288;-64
2022/04/07 11:28:15;;;;;;;13.00;11.20;;;;;;;13.85;59.06;93493.50;5036715;28;20229;-66
2022/04/07 11:30:47;;;;;;;16.30;11.25;;;;;;;13.88;59.42;93492.25;5037659;28;20233;-65
2022/04/07 11:33:19;;;;;;;11.35;9.65;;;;;;;14.10;58.49;93500.69;5028739;28;20321;-65
2022/04/07 11:36:04;;;;;;;13.88;9.82;;;;;;;14.17;57.58;93493.56;5031432;28;20237;-65
2022/04/07 11:38:37;;;;;;;9.30;8.27;;;;;;;14.19;57.01;93506.56;5029659;28;20229;-65
2022/04/07 11:41:08;;;;;;;7.88;5.78;;;;;;;14.20;55.57;93508.19;5038205;28;20210;-68
2022/04/07 11:43:35;;;;;;;9.07;6.28;;;;;;;14.06;55.66;93502.97;5034632;28;20224;-67
2022/04/07 11:46:04;;;;;;;10.70;5.97;;;;;;;13.93;55.47;93503.03;5034736;28;20229;-66